الصفحة الرئيسية
METAR-TAF:

METAR-TAF

مطار :

Kōchi, اليابان

دائرة عرض: 33-32N, خط طول: 133-40E, ارتفاع: 7 متر

مراقبة الطقس الحالي

تاريخ ووقت الإصدار 1ساعة و 22 دقيقة قبل الساعة 21:00UTC
ريح 2 عقدةمن اتجاهات متغيرة
درجة الحرارة 27°درجة مئوية
الرطوبة 89%
ضغط 1012 hPa
الرؤية 10 كم أو أكثر

METAR: RJOK 212100Z AUTO VRB02KT 9999 NSC 27/25 Q1012

زمن: 07:22 (22:22 UTC)

توقعات

تاريخ ووقت الإصدار 5ساعات و 17 دقيقة قبل الساعة 17:05UTC
التوقعات صالحة من21 الساعة 18 UTC إلى 23 الساعة 00 UTC
ريح 5 عقدة من الشمال
الرؤية 10 كم أو أكثر
غيوم قليلة على ارتفاع 1000 قدم
أصبح
من 21 الساعة 22 UTC إلى 22 الساعة 00 UTC
ريح 6 عقدة من الجنوب/الجنوب الشرقي
مؤقت
من 22 الساعة 03 UTC إلى 22 الساعة 09 UTC
غيوم قليلة على ارتفاع 1500 قدم
غيوم قليلة على ارتفاع 2500 قدم, مزنة ركامية.
غيوم متفرقة على ارتفاع 3000 قدم
عاصفة رعدية
أصبح
من 22 الساعة 12 UTC إلى 22 الساعة 15 UTC
ريح 6 عقدة من الشمال
أصبح
من 22 الساعة 21 UTC إلى 23 الساعة 00 UTC
ريح 5 عقدة من الجنوب

TAF: RJOK 211705Z 2118/2300 35005KT 9999 FEW010 BECMG 2122/2200 16006KT TEMPO 2203/2209 TS FEW015 FEW025CB SCT030 BECMG 2212/2215 35006KT BECMG 2221/2300 18005KT

أرصاد الطقس والتوقعات من أكثر من 4000 مطار (تقارير الطقس للمطار METAR والتنبؤ بالطقس بالمطارTAF).

المحطات المتاحة هي النقط الصفراء والحمراء على الخريطة.

حرك المؤشر فوق النقطة لمعرفة اسم المحطة.

ثم انقر لمعرفة أرصاد وتوقعات الطقس.

لتغيير الخارطة: اضغط على الأزرار الخضراء مع رمز الصليب الأسود للتكبير. على الزر الأخضر مع شرطة للتصغير، أو على الأسهم الخضراء للخرائط المجاورة.


METAR-TAF: